createdAt,value
2023-03-29T00:01:52.823Z,8.68
2023-03-29T00:04:22.273Z,8.25
2023-03-29T00:06:50.597Z,8.67
2023-03-29T00:09:18.509Z,8.46
2023-03-29T00:11:45.496Z,8.67
2023-03-29T00:14:13.037Z,8.67
2023-03-29T00:16:39.962Z,8.70
2023-03-29T00:19:06.574Z,8.85
2023-03-29T00:21:33.069Z,9.08
2023-03-29T00:23:59.754Z,8.75
2023-03-29T00:26:26.803Z,9.00
2023-03-29T00:28:53.728Z,9.02
2023-03-29T00:31:20.425Z,9.04
2023-03-29T00:33:47.552Z,8.83
2023-03-29T00:36:14.629Z,8.92
2023-03-29T00:38:41.334Z,8.86
2023-03-29T00:41:09.028Z,8.94
2023-03-29T00:43:59.543Z,8.88
2023-03-29T00:46:28.708Z,8.86
2023-03-29T00:49:02.200Z,8.97
2023-03-29T00:51:33.087Z,8.99
2023-03-29T00:54:03.460Z,8.88
2023-03-29T00:56:35.272Z,8.98
2023-03-29T00:59:07.096Z,8.94
2023-03-29T01:01:45.690Z,9.02
2023-03-29T01:04:22.889Z,9.00
2023-03-29T01:07:02.883Z,8.88
2023-03-29T01:09:33.779Z,8.68
2023-03-29T01:12:06.973Z,8.95
2023-03-29T01:14:39.956Z,8.56
2023-03-29T01:17:06.881Z,8.84
2023-03-29T01:19:42.266Z,8.50
2023-03-29T01:22:39.958Z,8.82
2023-03-29T01:25:26.220Z,8.66
2023-03-29T01:28:02.870Z,8.87
2023-03-29T01:30:41.062Z,8.34
2023-03-29T01:33:15.464Z,8.78
2023-03-29T01:35:51.181Z,8.84
2023-03-29T01:38:31.645Z,8.67
2023-03-29T01:41:00.594Z,8.71
2023-03-29T01:43:34.267Z,8.54
2023-03-29T01:46:26.475Z,8.69
2023-03-29T01:49:35.434Z,8.69
2023-03-29T01:52:37.807Z,8.69
2023-03-29T01:55:14.840Z,8.62
2023-03-29T01:57:44.942Z,8.32
2023-03-29T02:00:16.616Z,8.45
2023-03-29T02:02:46.449Z,8.77
2023-03-29T02:05:15.839Z,8.56
2023-03-29T02:07:46.432Z,8.08
2023-03-29T02:10:16.351Z,8.27
2023-03-29T02:12:43.263Z,7.79
2023-03-29T02:15:16.217Z,7.98
2023-03-29T02:17:44.536Z,7.95
2023-03-29T02:20:19.032Z,8.29
2023-03-29T02:22:52.141Z,8.42
2023-03-29T02:25:19.400Z,8.13
2023-03-29T02:27:46.197Z,8.53
2023-03-29T02:30:13.722Z,8.62
2023-03-29T02:33:06.916Z,8.14
2023-03-29T02:35:38.518Z,8.48
2023-03-29T02:38:09.013Z,8.30
2023-03-29T02:40:38.054Z,8.46
2023-03-29T02:43:07.029Z,8.28
2023-03-29T02:45:35.947Z,7.90
2023-03-29T02:48:07.814Z,8.12
2023-03-29T02:50:37.814Z,8.00
2023-03-29T02:53:10.204Z,8.05
2023-03-29T02:55:39.070Z,8.07
2023-03-29T02:58:08.807Z,7.87
2023-03-29T03:00:38.364Z,8.25
2023-03-29T03:03:07.982Z,8.19
2023-03-29T03:05:36.092Z,8.42
2023-03-29T03:08:03.331Z,8.17
2023-03-29T03:10:30.174Z,8.33
2023-03-29T03:12:56.765Z,8.49
2023-03-29T03:15:23.376Z,8.17
2023-03-29T03:17:50.032Z,8.25
2023-03-29T03:20:16.875Z,8.42
2023-03-29T03:22:48.756Z,8.53
2023-03-29T03:25:21.657Z,8.44
2023-03-29T03:27:49.752Z,8.33
2023-03-29T03:30:17.487Z,7.96
2023-03-29T03:32:44.710Z,8.26
2023-03-29T03:35:11.784Z,7.76
2023-03-29T03:37:39.138Z,8.12
2023-03-29T03:40:08.128Z,7.89
2023-03-29T03:42:34.821Z,8.16
2023-03-29T03:45:01.876Z,8.15
2023-03-29T03:47:29.336Z,8.12
2023-03-29T03:49:56.352Z,8.22
2023-03-29T03:52:23.287Z,8.27
2023-03-29T03:54:50.325Z,8.33
2023-03-29T03:57:17.425Z,8.06
2023-03-29T03:59:44.063Z,8.32
2023-03-29T04:02:11.120Z,8.34
2023-03-29T04:04:40.467Z,8.38
2023-03-29T04:07:07.280Z,8.36
2023-03-29T04:09:34.625Z,8.38
2023-03-29T04:12:01.659Z,8.13
2023-03-29T04:14:28.570Z,8.32
2023-03-29T04:16:55.289Z,8.39
2023-03-29T04:19:22.125Z,8.38
2023-03-29T04:21:49.586Z,8.31
2023-03-29T04:24:17.287Z,8.29
2023-03-29T04:26:44.988Z,8.23
2023-03-29T04:29:11.865Z,8.25
2023-03-29T04:31:38.543Z,8.28
2023-03-29T04:34:05.191Z,8.26
2023-03-29T04:36:31.793Z,8.33
2023-03-29T04:39:01.308Z,8.44
2023-03-29T04:41:28.680Z,8.23
2023-03-29T04:43:55.860Z,8.33
2023-03-29T04:46:25.619Z,8.38
2023-03-29T04:48:53.546Z,8.20
2023-03-29T04:51:22.440Z,8.22
2023-03-29T04:53:52.263Z,8.18
2023-03-29T04:56:18.892Z,8.26
2023-03-29T04:58:45.947Z,8.20
2023-03-29T05:01:12.637Z,8.37
2023-03-29T05:03:39.474Z,8.48
2023-03-29T05:06:08.704Z,8.37
2023-03-29T05:08:40.719Z,8.40
2023-03-29T05:11:11.665Z,8.17
2023-03-29T05:13:39.926Z,8.46
2023-03-29T05:16:07.849Z,8.44
2023-03-29T05:18:34.703Z,8.43
2023-03-29T05:21:01.393Z,8.44
2023-03-29T05:23:28.864Z,8.39
2023-03-29T05:25:55.865Z,8.19
2023-03-29T05:28:22.985Z,8.53
2023-03-29T05:31:01.402Z,8.49
2023-03-29T05:33:28.767Z,8.54
2023-03-29T05:36:03.555Z,8.45
2023-03-29T05:38:30.242Z,8.62
2023-03-29T05:40:58.733Z,8.62
2023-03-29T05:43:25.200Z,8.83
2023-03-29T05:45:55.981Z,8.57
2023-03-29T05:48:23.678Z,8.62
2023-03-29T05:50:52.227Z,8.72
2023-03-29T05:53:20.110Z,8.76
2023-03-29T05:55:48.268Z,8.79
2023-03-29T05:58:17.969Z,8.65
2023-03-29T06:00:46.250Z,8.68
2023-03-29T06:03:21.312Z,8.50
2023-03-29T06:05:54.910Z,8.23
2023-03-29T06:08:22.266Z,8.67
2023-03-29T06:10:49.799Z,8.91
2023-03-29T06:13:16.504Z,9.03
2023-03-29T06:15:43.016Z,9.31
2023-03-29T06:18:09.898Z,9.39
2023-03-29T06:20:36.553Z,9.00
2023-03-29T06:23:03.174Z,8.84
2023-03-29T06:25:30.630Z,9.28
2023-03-29T06:27:57.489Z,9.60
2023-03-29T06:30:24.234Z,9.49
2023-03-29T06:32:50.850Z,9.80
2023-03-29T06:35:17.897Z,9.37
2023-03-29T06:37:49.897Z,9.59
2023-03-29T06:40:21.204Z,10.03
2023-03-29T06:42:49.750Z,9.81
2023-03-29T06:45:16.824Z,9.73
2023-03-29T06:47:43.753Z,10.15
2023-03-29T06:50:11.894Z,9.74
2023-03-29T06:52:38.546Z,10.16
2023-03-29T06:55:08.589Z,10.41
2023-03-29T06:57:35.271Z,9.86
2023-03-29T07:00:01.948Z,9.90
2023-03-29T07:02:29.217Z,10.37
2023-03-29T07:04:56.201Z,10.18
2023-03-29T07:07:23.038Z,10.19
2023-03-29T07:09:54.581Z,10.04
2023-03-29T07:12:23.633Z,10.49
2023-03-29T07:14:50.282Z,10.29
2023-03-29T07:17:16.935Z,10.00
2023-03-29T07:19:44.822Z,10.14
2023-03-29T07:22:13.522Z,10.36
2023-03-29T07:24:42.764Z,10.56
2023-03-29T07:27:09.727Z,10.61
2023-03-29T07:29:37.219Z,10.82
2023-03-29T07:32:04.521Z,9.95
2023-03-29T07:34:32.661Z,10.38
2023-03-29T07:36:59.564Z,10.49
2023-03-29T07:39:26.298Z,10.20
2023-03-29T07:41:53.089Z,10.79
2023-03-29T07:44:21.649Z,10.83
2023-03-29T07:46:49.580Z,10.66
2023-03-29T07:49:16.453Z,10.32
2023-03-29T07:51:43.897Z,10.95
2023-03-29T07:54:10.684Z,11.13
2023-03-29T07:56:37.835Z,11.04
2023-03-29T07:59:04.775Z,10.26
2023-03-29T08:01:31.638Z,10.51
2023-03-29T08:04:00.161Z,11.23
2023-03-29T08:06:27.607Z,10.99
2023-03-29T08:08:54.779Z,11.19
2023-03-29T08:11:21.626Z,11.42
2023-03-29T08:13:48.308Z,11.46
2023-03-29T08:16:14.936Z,11.84
2023-03-29T08:18:42.184Z,11.35
2023-03-29T08:21:08.900Z,11.73
2023-03-29T08:23:36.212Z,11.17
2023-03-29T08:26:04.235Z,11.76
2023-03-29T08:28:33.324Z,11.53
2023-03-29T08:31:03.613Z,11.63
2023-03-29T08:33:33.592Z,11.32
2023-03-29T08:36:04.535Z,11.49
2023-03-29T08:38:34.852Z,11.17
2023-03-29T08:41:03.919Z,11.56
2023-03-29T08:43:58.345Z,12.45
2023-03-29T08:46:34.499Z,12.45
2023-03-29T08:49:07.032Z,12.51
2023-03-29T08:51:42.324Z,12.06
2023-03-29T08:54:27.736Z,12.72
2023-03-29T08:57:03.096Z,13.20
2023-03-29T08:59:33.381Z,13.34
2023-03-29T09:02:05.280Z,13.57
2023-03-29T09:04:36.563Z,13.56
2023-03-29T09:07:04.106Z,13.00
2023-03-29T09:09:37.634Z,13.67
2023-03-29T09:12:04.285Z,14.67
2023-03-29T09:14:37.270Z,15.27
2023-03-29T09:17:15.298Z,15.13
2023-03-29T09:20:16.163Z,14.79
2023-03-29T09:23:01.699Z,13.93
2023-03-29T09:26:01.361Z,14.53
2023-03-29T09:28:38.670Z,14.92
2023-03-29T09:31:06.866Z,15.27
2023-03-29T09:33:43.734Z,15.25
2023-03-29T09:36:38.625Z,15.00
2023-03-29T09:39:05.702Z,14.62
2023-03-29T09:41:42.217Z,14.88
2023-03-29T09:44:27.747Z,14.44
2023-03-29T09:47:02.439Z,14.68
2023-03-29T09:49:35.429Z,15.56
2023-03-29T09:52:08.934Z,15.28
2023-03-29T09:54:36.826Z,14.94
2023-03-29T09:57:03.620Z,15.85
2023-03-29T09:59:31.203Z,16.55
2023-03-29T10:02:13.062Z,16.53
2023-03-29T10:04:42.555Z,16.72
2023-03-29T10:07:18.120Z,16.75
2023-03-29T10:09:46.799Z,16.98
2023-03-29T10:12:14.212Z,16.12
2023-03-29T10:14:44.718Z,17.12
2023-03-29T10:17:20.478Z,16.65
2023-03-29T10:19:58.273Z,16.66
2023-03-29T10:22:27.806Z,16.57
2023-03-29T10:24:57.152Z,17.94
2023-03-29T10:27:30.720Z,19.13
2023-03-29T10:30:00.665Z,18.11
2023-03-29T10:32:35.838Z,18.01
2023-03-29T10:35:26.435Z,16.62
2023-03-29T10:37:57.529Z,16.87
2023-03-29T10:40:32.465Z,17.00
2023-03-29T10:43:15.424Z,16.31
2023-03-29T10:45:42.772Z,16.23
2023-03-29T10:48:14.905Z,16.27
2023-03-29T10:50:42.796Z,16.46
2023-03-29T10:53:17.661Z,16.25
2023-03-29T10:56:00.797Z,15.21
2023-03-29T10:58:52.632Z,15.27
2023-03-29T11:01:46.693Z,15.53
2023-03-29T11:04:42.230Z,15.92
2023-03-29T11:07:52.728Z,15.74
2023-03-29T11:10:42.328Z,15.75
2023-03-29T11:13:21.170Z,16.08
2023-03-29T11:16:12.738Z,15.44
2023-03-29T11:18:54.088Z,16.66
2023-03-29T11:21:37.780Z,16.86
2023-03-29T11:24:29.168Z,15.83
2023-03-29T11:27:17.409Z,16.32
2023-03-29T11:29:58.888Z,16.56
2023-03-29T11:32:40.312Z,16.20
2023-03-29T11:35:07.141Z,16.83
2023-03-29T11:37:48.564Z,17.35
2023-03-29T11:40:39.905Z,16.62
2023-03-29T11:43:15.295Z,17.55
2023-03-29T11:45:50.055Z,18.08
2023-03-29T11:48:23.266Z,18.64
2023-03-29T11:50:58.594Z,18.14
2023-03-29T11:53:39.126Z,18.80
2023-03-29T11:56:16.020Z,19.02
2023-03-29T11:58:48.066Z,18.58
2023-03-29T12:01:22.196Z,18.25
2023-03-29T12:04:00.203Z,19.13
2023-03-29T12:06:34.448Z,18.06
2023-03-29T12:09:35.609Z,18.37
2023-03-29T12:12:25.051Z,18.88
2023-03-29T12:15:01.147Z,19.95
2023-03-29T12:17:32.013Z,20.18
2023-03-29T12:20:07.292Z,20.34
2023-03-29T12:22:34.271Z,21.23
2023-03-29T12:25:05.785Z,20.20
2023-03-29T12:27:46.757Z,20.84
2023-03-29T12:30:33.897Z,20.87
2023-03-29T12:33:19.269Z,19.30
2023-03-29T12:36:02.542Z,19.18
2023-03-29T12:38:31.762Z,20.77
2023-03-29T12:41:06.043Z,20.53
2023-03-29T12:43:38.434Z,18.66
2023-03-29T12:46:19.518Z,20.68
2023-03-29T12:48:56.276Z,21.55
2023-03-29T12:51:31.544Z,20.40
2023-03-29T12:54:16.471Z,20.38
2023-03-29T12:56:52.323Z,19.94
2023-03-29T12:59:26.029Z,20.34
2023-03-29T13:02:04.813Z,21.08
2023-03-29T13:04:38.920Z,20.49
2023-03-29T13:07:13.698Z,20.13
2023-03-29T13:09:52.472Z,20.24
2023-03-29T13:12:39.124Z,19.72
2023-03-29T13:15:21.419Z,20.12
2023-03-29T13:17:58.327Z,20.04
2023-03-29T13:20:40.323Z,18.69
2023-03-29T13:23:38.391Z,19.07
2023-03-29T13:26:30.676Z,19.69
2023-03-29T13:29:12.033Z,19.87
2023-03-29T13:31:51.711Z,19.16
2023-03-29T13:34:47.464Z,19.58
2023-03-29T13:37:29.938Z,18.52
2023-03-29T13:39:57.631Z,17.68
2023-03-29T13:42:33.331Z,18.38
2023-03-29T13:45:09.557Z,17.83
2023-03-29T13:47:58.385Z,17.72
2023-03-29T13:50:40.761Z,17.12
2023-03-29T13:53:22.530Z,16.69
2023-03-29T13:55:52.416Z,17.70
2023-03-29T13:58:38.195Z,17.32
2023-03-29T14:01:27.228Z,17.99
2023-03-29T14:03:57.728Z,18.43
2023-03-29T14:06:29.189Z,18.12
2023-03-29T14:08:57.475Z,18.51
2023-03-29T14:11:29.924Z,18.82
2023-03-29T14:14:01.501Z,18.95
2023-03-29T14:16:38.854Z,18.91
2023-03-29T14:19:37.061Z,18.59
2023-03-29T14:22:19.895Z,18.04
2023-03-29T14:24:54.785Z,17.11
2023-03-29T14:27:36.121Z,17.83
2023-03-29T14:30:30.656Z,18.33
2023-03-29T14:32:59.427Z,18.23
2023-03-29T14:35:37.569Z,18.49
2023-03-29T14:38:04.242Z,18.69
2023-03-29T14:40:33.967Z,18.83
2023-03-29T14:43:10.293Z,18.84
2023-03-29T14:45:41.784Z,18.74
2023-03-29T14:48:18.324Z,18.75
2023-03-29T14:50:46.368Z,18.63
2023-03-29T14:53:30.560Z,18.18
2023-03-29T14:55:59.206Z,18.65
2023-03-29T14:58:33.037Z,18.58
2023-03-29T15:01:09.411Z,18.37
2023-03-29T15:04:11.458Z,18.75
2023-03-29T15:06:47.883Z,18.48
2023-03-29T15:09:31.358Z,18.05
2023-03-29T15:12:00.603Z,18.42
2023-03-29T15:14:43.869Z,19.03
2023-03-29T15:17:31.293Z,18.82
2023-03-29T15:20:31.611Z,19.07
2023-03-29T15:23:14.887Z,18.52
2023-03-29T15:26:03.969Z,18.60
2023-03-29T15:28:41.156Z,18.65
2023-03-29T15:31:21.744Z,18.60
2023-03-29T15:33:52.018Z,18.86
2023-03-29T15:36:24.800Z,18.58
2023-03-29T15:38:58.128Z,18.70
2023-03-29T15:41:28.156Z,19.13
2023-03-29T15:44:02.749Z,19.13
2023-03-29T15:46:37.681Z,19.03
2023-03-29T15:49:05.187Z,18.51
2023-03-29T15:51:34.642Z,19.01
2023-03-29T15:54:01.676Z,18.62
2023-03-29T15:56:28.573Z,18.88
2023-03-29T15:58:56.685Z,18.43
2023-03-29T16:01:36.635Z,18.60
2023-03-29T16:04:09.354Z,18.54
2023-03-29T16:06:36.233Z,18.73
2023-03-29T16:09:03.756Z,19.07
2023-03-29T16:11:30.727Z,18.95
2023-03-29T16:13:58.157Z,18.70
2023-03-29T16:16:25.418Z,18.62
2023-03-29T16:18:52.069Z,18.96
2023-03-29T16:21:22.398Z,19.02
2023-03-29T16:23:51.498Z,18.91
2023-03-29T16:26:19.231Z,18.82
2023-03-29T16:28:46.389Z,18.59
2023-03-29T16:31:15.742Z,18.82
2023-03-29T16:33:42.536Z,18.96
2023-03-29T16:36:10.215Z,18.78
2023-03-29T16:38:37.137Z,18.88
2023-03-29T16:41:04.098Z,19.05
2023-03-29T16:43:31.641Z,18.88
2023-03-29T16:45:58.401Z,18.43
2023-03-29T16:48:24.971Z,18.59
2023-03-29T16:50:51.771Z,18.16
2023-03-29T16:53:21.222Z,18.20
2023-03-29T16:55:50.671Z,18.37
2023-03-29T16:58:17.211Z,18.00
2023-03-29T17:00:48.159Z,18.25
2023-03-29T17:03:16.361Z,18.36
2023-03-29T17:05:50.896Z,18.35
2023-03-29T17:08:19.649Z,18.14
2023-03-29T17:10:47.052Z,18.28
2023-03-29T17:13:14.724Z,18.19
2023-03-29T17:15:41.578Z,18.06
2023-03-29T17:18:08.509Z,17.67
2023-03-29T17:20:40.396Z,17.76
2023-03-29T17:23:08.748Z,17.62
2023-03-29T17:25:35.836Z,17.45
2023-03-29T17:28:03.820Z,17.63
2023-03-29T17:30:31.063Z,17.55
2023-03-29T17:32:57.661Z,17.44
2023-03-29T17:35:24.366Z,17.58
2023-03-29T17:37:51.116Z,17.46
2023-03-29T17:40:18.529Z,17.56
2023-03-29T17:42:48.914Z,17.80
2023-03-29T17:45:15.932Z,17.02
2023-03-29T17:47:42.733Z,17.43
2023-03-29T17:50:12.912Z,17.00
2023-03-29T17:52:47.422Z,17.10
2023-03-29T17:55:15.530Z,17.48
2023-03-29T17:57:43.506Z,16.97
2023-03-29T18:00:13.990Z,16.96
2023-03-29T18:02:43.705Z,17.13
2023-03-29T18:05:10.627Z,16.97
2023-03-29T18:07:37.475Z,16.52
2023-03-29T18:10:06.298Z,16.91
2023-03-29T18:12:33.043Z,17.24
2023-03-29T18:14:59.733Z,17.19
2023-03-29T18:17:27.696Z,17.17
2023-03-29T18:19:54.850Z,17.02
2023-03-29T18:22:24.254Z,17.18
2023-03-29T18:24:51.118Z,17.29
2023-03-29T18:27:18.107Z,17.12
2023-03-29T18:29:44.759Z,17.17
2023-03-29T18:32:12.104Z,16.82
2023-03-29T18:34:39.449Z,16.85
2023-03-29T18:37:06.313Z,16.86
2023-03-29T18:39:34.969Z,16.84
2023-03-29T18:42:01.807Z,16.76
2023-03-29T18:44:28.674Z,16.48
2023-03-29T18:46:55.295Z,16.80
2023-03-29T18:49:21.872Z,16.52
2023-03-29T18:51:50.056Z,16.89
2023-03-29T18:54:17.521Z,16.94
2023-03-29T18:56:45.275Z,16.72
2023-03-29T18:59:11.906Z,16.98
2023-03-29T19:01:38.875Z,16.94
2023-03-29T19:04:06.195Z,16.61
2023-03-29T19:06:32.913Z,16.40
2023-03-29T19:09:02.067Z,16.18
2023-03-29T19:11:29.610Z,16.38
2023-03-29T19:13:56.421Z,16.51
2023-03-29T19:16:23.607Z,16.47
2023-03-29T19:18:51.847Z,16.73
2023-03-29T19:21:18.491Z,16.83
2023-03-29T19:23:46.060Z,16.81
2023-03-29T19:26:14.905Z,16.82
2023-03-29T19:28:41.534Z,16.76
2023-03-29T19:31:08.357Z,16.87
2023-03-29T19:33:35.119Z,16.76
2023-03-29T19:36:02.114Z,16.57
2023-03-29T19:38:29.127Z,16.52
2023-03-29T19:40:56.800Z,16.05
2023-03-29T19:43:24.897Z,16.47
2023-03-29T19:45:51.541Z,16.26
2023-03-29T19:48:23.584Z,16.17
2023-03-29T19:50:51.245Z,16.14
2023-03-29T19:53:17.952Z,16.11
2023-03-29T19:55:45.985Z,15.74
2023-03-29T19:58:12.926Z,16.00
2023-03-29T20:00:39.937Z,15.99
2023-03-29T20:03:12.450Z,16.20
2023-03-29T20:05:39.896Z,16.14
2023-03-29T20:08:07.801Z,16.22
2023-03-29T20:10:35.998Z,16.21
2023-03-29T20:13:03.480Z,16.25
2023-03-29T20:15:30.072Z,16.11
2023-03-29T20:17:59.288Z,15.78
2023-03-29T20:20:27.344Z,15.91
2023-03-29T20:23:04.524Z,16.16
2023-03-29T20:25:32.578Z,16.20
2023-03-29T20:27:59.856Z,16.06
2023-03-29T20:30:26.678Z,15.81
2023-03-29T20:32:54.852Z,15.74
2023-03-29T20:35:21.710Z,15.54
2023-03-29T20:37:48.245Z,15.71
2023-03-29T20:40:15.916Z,15.52
2023-03-29T20:42:46.306Z,15.69
2023-03-29T20:45:18.821Z,15.16
2023-03-29T20:47:50.681Z,15.12
2023-03-29T20:50:19.182Z,15.30
2023-03-29T20:52:45.978Z,15.38
2023-03-29T20:55:13.300Z,15.70
2023-03-29T20:57:42.151Z,15.69
2023-03-29T21:00:12.221Z,15.41
2023-03-29T21:02:41.489Z,15.71
2023-03-29T21:05:09.236Z,15.37
2023-03-29T21:07:36.324Z,15.39
2023-03-29T21:10:04.462Z,15.37
2023-03-29T21:12:33.923Z,15.46
2023-03-29T21:15:02.254Z,15.22
2023-03-29T21:17:28.867Z,15.36
2023-03-29T21:19:55.885Z,15.43
2023-03-29T21:22:23.237Z,15.29
2023-03-29T21:24:49.780Z,15.29
2023-03-29T21:27:16.624Z,15.43
2023-03-29T21:29:44.626Z,14.95
2023-03-29T21:32:11.593Z,15.24
2023-03-29T21:34:38.364Z,15.13
2023-03-29T21:37:05.333Z,15.42
2023-03-29T21:39:32.143Z,15.22
2023-03-29T21:41:59.486Z,15.37
2023-03-29T21:44:26.730Z,15.26
2023-03-29T21:46:53.734Z,15.01
2023-03-29T21:49:20.512Z,15.10
2023-03-29T21:51:47.109Z,15.03
2023-03-29T21:54:13.960Z,14.76
2023-03-29T21:56:40.563Z,14.88
2023-03-29T21:59:09.768Z,14.85
2023-03-29T22:01:36.464Z,14.86
2023-03-29T22:04:04.225Z,14.80
2023-03-29T22:06:31.238Z,14.83
2023-03-29T22:09:00.711Z,14.73
2023-03-29T22:11:31.009Z,14.79
2023-03-29T22:13:57.686Z,14.74
2023-03-29T22:16:25.831Z,14.61
2023-03-29T22:18:54.301Z,14.50
2023-03-29T22:21:33.331Z,14.59
2023-03-29T22:24:01.236Z,14.53
2023-03-29T22:26:31.174Z,14.49
2023-03-29T22:28:59.051Z,14.54
2023-03-29T22:31:27.068Z,14.55
2023-03-29T22:33:54.140Z,14.53
2023-03-29T22:36:24.406Z,14.47
2023-03-29T22:38:53.766Z,14.47
2023-03-29T22:41:24.812Z,14.47
2023-03-29T22:43:52.516Z,14.43
2023-03-29T22:46:20.721Z,14.35
2023-03-29T22:48:51.135Z,14.45
2023-03-29T22:51:17.986Z,14.40
2023-03-29T22:53:44.684Z,14.39
2023-03-29T22:56:13.674Z,14.46
2023-03-29T22:58:40.487Z,14.55
2023-03-29T23:01:07.885Z,14.67
2023-03-29T23:03:34.768Z,14.83
2023-03-29T23:06:04.794Z,14.92
2023-03-29T23:08:33.425Z,15.03
2023-03-29T23:11:00.422Z,15.07
2023-03-29T23:13:29.012Z,15.03
2023-03-29T23:16:01.557Z,15.01
2023-03-29T23:18:29.458Z,15.07
2023-03-29T23:20:57.525Z,15.03
2023-03-29T23:23:26.680Z,15.04
2023-03-29T23:25:55.349Z,14.98
2023-03-29T23:28:26.043Z,14.79
2023-03-29T23:31:00.300Z,14.92
2023-03-29T23:33:30.703Z,14.99
2023-03-29T23:35:59.539Z,15.03
2023-03-29T23:38:27.987Z,14.88
2023-03-29T23:40:59.412Z,15.03
2023-03-29T23:43:31.770Z,14.88
2023-03-29T23:46:05.802Z,14.95
2023-03-29T23:48:34.048Z,15.03
2023-03-29T23:51:01.352Z,14.89
2023-03-29T23:53:29.294Z,15.08
2023-03-29T23:56:00.387Z,15.07
2023-03-29T23:58:32.789Z,14.99
